Time;durP1;ratioP1;P1;durP2;ratioP2;P2;SDS_P1;SDS_P2;PMS_P1;PMS_P2;Temp;Humidity;BMP_temperature;BMP_pressure;BME280_temperature;BME280_humidity;BME280_pressure;Samples;Min_cycle;Max_cycle;Signal;HPM_P1;HPM_P2
2022/03/12 00:02:04;;;;;;;;;1.00;1.00;;;;;15.27;59.45;100856.44;5118812;27;61892;-84
2022/03/12 00:04:30;;;;;;;;;4.00;2.00;;;;;15.25;59.41;100859.09;5102905;27;61711;-84
2022/03/12 00:06:58;;;;;;;;;3.25;2.50;;;;;15.24;59.42;100859.91;5100530;27;62012;-84
2022/03/12 00:09:24;;;;;;;;;3.00;2.00;;;;;15.25;59.46;100863.44;5102743;27;61751;-85
2022/03/12 00:11:56;;;;;;;;;2.00;2.00;;;;;15.24;59.43;100862.56;5118710;27;61976;-84
2022/03/12 00:14:23;;;;;;;;;5.50;2.50;;;;;15.19;59.06;100877.41;5100878;27;61810;-84
2022/03/12 00:16:49;;;;;;;;;5.50;3.00;;;;;15.13;59.32;100869.31;5102181;27;62513;-85
2022/03/12 00:19:16;;;;;;;;;2.25;1.00;;;;;15.17;59.05;100873.84;5118123;27;61851;-84
2022/03/12 00:21:42;;;;;;;;;1.00;1.00;;;;;15.15;58.92;100875.53;5101409;27;62014;-85
2022/03/12 00:24:12;;;;;;;;;2.25;1.00;;;;;15.16;59.14;100879.97;5102941;27;62220;-84
2022/03/12 00:26:40;;;;;;;;;1.75;1.75;;;;;15.19;59.03;100887.06;5101421;27;61938;-84
2022/03/12 00:29:09;;;;;;;;;2.25;2.00;;;;;15.26;58.92;100894.34;5102321;27;61774;-85
2022/03/12 00:31:34;;;;;;;;;2.00;2.00;;;;;15.23;58.97;100884.59;5100881;27;61929;-85
2022/03/12 00:34:00;;;;;;;;;2.00;2.00;;;;;15.30;58.68;100890.94;5102268;27;61781;-84
2022/03/12 00:36:25;;;;;;;;;3.25;2.00;;;;;15.33;58.57;100906.88;5103745;27;62577;-84
2022/03/12 00:38:51;;;;;;;;;2.75;2.75;;;;;15.31;58.73;100900.63;5105903;27;61925;-85
2022/03/12 00:41:17;;;;;;;;;3.00;2.00;;;;;15.42;58.21;100906.22;5104998;27;61797;-85
2022/03/12 00:43:43;;;;;;;;;1.00;1.00;;;;;15.44;58.20;100901.88;5104708;27;61792;-85
2022/03/12 00:46:09;;;;;;;;;7.00;2.00;;;;;15.39;58.18;100908.78;5105639;27;61869;-84
2022/03/12 00:48:34;;;;;;;;;2.75;2.75;;;;;15.38;58.32;100913.19;5104109;27;61912;-84
2022/03/12 00:51:00;;;;;;;;;4.25;3.50;;;;;15.39;58.13;100908.78;5105863;27;62156;-85
2022/03/12 00:53:26;;;;;;;;;3.50;2.00;;;;;15.36;58.02;100921.91;5104738;27;61797;-84
2022/03/12 00:55:51;;;;;;;;;2.00;2.00;;;;;15.41;58.00;100926.50;5103912;27;63925;-84
2022/03/12 00:58:17;;;;;;;;;2.00;2.00;;;;;15.39;58.02;100935.25;5104847;27;61966;-84
2022/03/12 01:00:43;;;;;;;;;4.75;2.00;;;;;15.30;58.32;100931.50;5104090;27;61839;-84
2022/03/12 01:03:09;;;;;;;;;2.25;2.25;;;;;15.37;57.76;100935.19;5104002;27;61953;-85
2022/03/12 01:05:49;;;;;;;;;1.00;1.00;;;;;15.34;57.91;100943.06;5104925;27;63248;-85
2022/03/12 01:08:17;;;;;;;;;5.00;3.75;;;;;15.38;57.87;100938.72;5103821;27;61998;-84
2022/03/12 01:10:43;;;;;;;;;3.00;3.00;;;;;15.36;57.90;100946.66;5104331;27;62036;-85
2022/03/12 01:13:09;;;;;;;;;3.50;2.75;;;;;15.35;57.72;100947.47;5104353;27;61951;-85
2022/03/12 01:15:34;;;;;;;;;2.00;2.00;;;;;15.34;58.00;100946.59;5104436;27;62953;-85
2022/03/12 01:18:01;;;;;;;;;4.50;3.00;;;;;15.40;57.95;100961.72;5105058;27;61914;-84
2022/03/12 01:20:27;;;;;;;;;4.75;2.00;;;;;15.48;57.66;100964.59;5103925;27;62389;-85
2022/03/12 01:22:52;;;;;;;;;2.75;2.00;;;;;15.47;57.72;100966.34;5104102;27;61996;-85
2022/03/12 01:25:19;;;;;;;;;4.75;2.50;;;;;15.46;57.73;100963.66;5104622;27;63170;-85
2022/03/12 01:27:44;;;;;;;;;1.50;1.50;;;;;15.49;57.54;100964.63;5102959;27;62212;-84
2022/03/12 01:30:10;;;;;;;;;3.50;2.25;;;;;15.47;57.67;100960.16;5120917;27;61899;-85
2022/03/12 01:32:36;;;;;;;;;3.00;3.00;;;;;15.42;57.55;100954.72;5120933;27;62246;-85
2022/03/12 01:35:03;;;;;;;;;4.50;2.00;;;;;15.41;57.88;100952.94;5120502;27;63106;-85
2022/03/12 01:37:28;;;;;;;;;3.25;1.25;;;;;15.31;57.92;100959.72;5103697;27;62110;-85
2022/03/12 01:39:54;;;;;;;;;2.00;2.00;;;;;15.31;58.11;100950.91;5103615;27;61713;-84
2022/03/12 01:42:27;;;;;;;;;1.50;1.00;;;;;15.29;58.05;100960.53;5103895;27;61787;-84
2022/03/12 01:44:53;;;;;;;;;1.25;1.25;;;;;15.26;57.84;100949.88;5119936;27;61894;-85
2022/03/12 01:47:20;;;;;;;;;2.00;2.00;;;;;15.24;57.94;100949.81;5104320;27;61752;-85
2022/03/12 01:49:48;;;;;;;;;4.00;2.00;;;;;15.23;58.13;100958.63;5103152;27;62126;-84
2022/03/12 01:52:15;;;;;;;;;3.75;2.75;;;;;15.17;58.21;100949.59;5103862;27;62186;-85
2022/03/12 01:54:41;;;;;;;;;8.75;3.25;;;;;15.17;58.28;100960.19;5104344;27;62105;-85
2022/03/12 01:57:08;;;;;;;;;3.50;2.25;;;;;15.16;58.19;100966.34;5102993;27;62496;-85
2022/03/12 01:59:34;;;;;;;;;6.25;1.75;;;;;15.21;58.22;100962.97;5102540;27;61974;-84
2022/03/12 02:02:00;;;;;;;;;1.25;1.25;;;;;15.26;58.04;100964.00;5120547;27;61781;-84
2022/03/12 02:04:29;;;;;;;;;4.50;1.00;;;;;15.31;58.01;100965.00;5104117;27;62217;-84
2022/03/12 02:06:58;;;;;;;;;3.25;2.50;;;;;15.35;57.85;100968.63;5103173;27;61924;-85
2022/03/12 02:09:23;;;;;;;;;6.00;2.00;;;;;15.40;57.58;100971.41;5103382;27;62214;-85
2022/03/12 02:11:52;;;;;;;;;2.75;2.75;;;;;15.39;57.63;100977.56;5103268;27;61864;-85
2022/03/12 02:14:23;;;;;;;;;2.00;1.00;;;;;15.32;57.77;100985.31;5102315;27;63787;-84
2022/03/12 02:16:55;;;;;;;;;2.25;2.00;;;;;15.33;57.49;100989.75;5102729;27;62127;-84
2022/03/12 02:19:22;;;;;;;;;3.75;2.00;;;;;15.32;57.64;100982.69;5102774;27;62105;-85
2022/03/12 02:22:15;;;;;;;;;3.00;1.75;;;;;15.39;57.60;100996.09;5103337;27;62017;-84
2022/03/12 02:24:41;;;;;;;;;6.25;2.75;;;;;15.40;57.16;100996.09;5117636;27;62275;-85
2022/03/12 02:27:12;;;;;;;;;2.00;2.00;;;;;15.39;57.48;100988.16;5102557;27;61661;-84
2022/03/12 02:29:40;;;;;;;;;2.75;2.75;;;;;15.43;57.16;100995.31;5102578;27;61999;-84
2022/03/12 02:32:09;;;;;;;;;2.00;2.00;;;;;15.45;57.50;100999.78;5103161;27;61680;-85
2022/03/12 02:34:42;;;;;;;;;2.75;1.50;;;;;15.44;56.98;100995.34;5103656;27;62022;-85
2022/03/12 02:37:09;;;;;;;;;2.00;2.00;;;;;15.47;57.32;100991.91;5104307;27;61712;-84
2022/03/12 02:39:38;;;;;;;;;3.00;3.00;;;;;15.47;57.14;100989.25;5102660;27;62096;-84
2022/03/12 02:42:06;;;;;;;;;4.75;2.75;;;;;15.50;57.29;101003.44;5103076;27;62137;-84
2022/03/12 02:44:32;;;;;;;;;4.25;3.00;;;;;15.51;56.99;100991.09;5102472;27;63055;-84
2022/03/12 02:47:15;;;;;;;;;5.50;3.00;;;;;15.51;56.89;100986.75;5103791;27;61849;-85
2022/03/12 02:49:50;;;;;;;;;3.25;3.25;;;;;15.50;57.17;100992.88;5103911;27;61790;-85
2022/03/12 02:52:18;;;;;;;;;6.75;2.00;;;;;15.50;56.98;100991.97;5102877;27;62206;-84
2022/03/12 02:54:45;;;;;;;;;2.00;2.00;;;;;15.53;57.08;100987.69;5101871;27;62212;-85
2022/03/12 02:57:12;;;;;;;;;3.50;3.00;;;;;15.59;56.83;100999.28;5101893;27;61973;-85
2022/03/12 02:59:41;;;;;;;;;6.50;3.00;;;;;15.58;56.63;100995.75;5118080;27;62091;-85
2022/03/12 03:02:08;;;;;;;;;5.50;2.25;;;;;15.50;56.90;100994.63;5103929;27;61795;-85
2022/03/12 03:04:35;;;;;;;;;2.00;2.00;;;;;15.50;56.82;101007.84;5101775;27;63849;-85
2022/03/12 03:07:02;;;;;;;;;2.00;2.00;;;;;15.51;56.42;101001.69;5103549;27;61806;-85
2022/03/12 03:09:29;;;;;;;;;5.00;1.75;;;;;15.48;56.81;100994.56;5102064;27;62179;-84
2022/03/12 03:11:54;;;;;;;;;3.75;3.00;;;;;15.52;56.60;100990.28;5102426;27;61781;-85
2022/03/12 03:14:22;;;;;;;;;5.25;2.25;;;;;15.42;56.94;100997.03;5101059;27;64138;-83
2022/03/12 03:16:47;;;;;;;;;3.00;3.00;;;;;15.42;57.02;101001.44;5103371;27;61869;-85
2022/03/12 03:19:15;;;;;;;;;6.00;2.00;;;;;15.39;56.63;100996.97;5103403;27;61847;-85
2022/03/12 03:21:40;;;;;;;;;2.00;0.75;;;;;15.33;57.00;100995.03;5103787;27;62140;-85
2022/03/12 03:24:06;;;;;;;;;3.50;2.00;;;;;15.36;56.93;100995.97;5101271;27;64499;-85
2022/03/12 03:26:38;;;;;;;;;2.00;2.00;;;;;15.28;56.99;101001.97;5103027;27;61824;-85
2022/03/12 03:29:08;;;;;;;;;5.75;2.00;;;;;15.28;56.96;100995.78;5102997;27;61823;-85
2022/03/12 03:31:34;;;;;;;;;2.25;2.00;;;;;15.25;57.27;100999.25;5119310;27;62049;-85
2022/03/12 03:34:00;;;;;;;;;5.50;3.00;;;;;15.16;57.31;101013.94;5101290;27;64077;-84
2022/03/12 03:36:27;;;;;;;;;6.50;1.00;;;;;15.17;57.36;101006.06;5101715;27;61861;-85
2022/03/12 03:38:52;;;;;;;;;8.00;2.00;;;;;15.16;57.50;100996.31;5101992;27;61925;-85
2022/03/12 03:41:18;;;;;;;;;3.50;1.50;;;;;15.25;57.17;101007.19;5103479;27;61715;-84
2022/03/12 03:43:46;;;;;;;;;2.00;2.00;;;;;15.27;57.21;101001.91;5101977;27;61998;-85
2022/03/12 03:46:16;;;;;;;;;2.50;2.00;;;;;15.31;56.87;101003.78;5101459;27;61995;-84
2022/03/12 03:48:42;;;;;;;;;1.25;1.25;;;;;15.29;57.06;101011.66;5103188;27;62120;-84
2022/03/12 03:51:08;;;;;;;;;3.00;2.00;;;;;15.26;57.21;101008.94;5101680;27;61873;-85
2022/03/12 03:53:33;;;;;;;;;3.25;2.75;;;;;15.23;57.14;101010.59;5100870;27;61749;-85
2022/03/12 03:56:00;;;;;;;;;3.00;2.00;;;;;15.20;57.13;101000.84;5102537;27;62193;-84
2022/03/12 03:58:27;;;;;;;;;4.25;3.75;;;;;15.20;57.07;101002.59;5102337;27;61893;-85
2022/03/12 04:00:57;;;;;;;;;3.50;2.00;;;;;15.19;57.17;100998.13;5101388;27;61884;-85
2022/03/12 04:03:24;;;;;;;;;2.00;2.00;;;;;15.13;57.12;100997.13;5101137;27;62826;-85
2022/03/12 04:05:50;;;;;;;;;4.00;2.00;;;;;15.11;57.33;101004.09;5102764;27;61802;-85
2022/03/12 04:08:16;;;;;;;;;4.00;2.25;;;;;15.12;57.23;101003.28;5102629;27;61918;-84
2022/03/12 04:10:42;;;;;;;;;5.25;3.50;;;;;15.04;57.51;101007.44;5102818;27;62113;-85
2022/03/12 04:13:19;;;;;;;;;4.75;4.00;;;;;15.00;57.60;101005.56;5103894;27;62380;-85
2022/03/12 04:15:45;;;;;;;;;3.00;2.00;;;;;15.03;57.94;101004.75;5106176;27;61802;-85
2022/03/12 04:18:13;;;;;;;;;2.00;1.00;;;;;15.04;57.88;101004.78;5122035;27;62062;-85
2022/03/12 04:20:39;;;;;;;;;0.75;0.00;;;;;14.98;57.84;101009.00;5105158;27;62337;-85
2022/03/12 04:23:05;;;;;;;;;1.75;1.25;;;;;15.00;57.76;101023.16;5105680;27;61768;-85
2022/03/12 04:25:31;;;;;;;;;4.00;3.25;;;;;15.05;57.73;101018.91;5106256;27;61758;-85
2022/03/12 04:27:58;;;;;;;;;6.75;2.00;;;;;15.07;57.70;101019.84;5105378;27;61853;-85
2022/03/12 04:30:24;;;;;;;;;3.00;3.00;;;;;15.08;57.77;101014.63;5106085;27;61966;-85
2022/03/12 04:32:50;;;;;;;;;8.75;2.75;;;;;15.11;57.58;101027.03;5103967;27;63318;-85
2022/03/12 04:35:19;;;;;;;;;2.50;2.50;;;;;15.10;57.55;101027.84;5104743;27;61830;-85
2022/03/12 04:37:45;;;;;;;;;1.00;1.00;;;;;15.10;57.15;101031.41;5104856;27;61930;-84
2022/03/12 04:40:16;;;;;;;;;3.00;3.00;;;;;15.12;57.26;101034.09;5104184;27;62229;-82
2022/03/12 04:42:44;;;;;;;;;6.00;3.00;;;;;15.08;57.30;101040.13;5105173;27;61704;-85
2022/03/12 04:45:15;;;;;;;;;2.00;1.00;;;;;15.09;57.13;101037.53;5104254;27;61847;-85
2022/03/12 04:47:42;;;;;;;;;1.25;1.00;;;;;15.10;57.53;101035.78;5104396;27;62069;-85
2022/03/12 04:50:09;;;;;;;;;3.00;2.25;;;;;15.12;57.70;101044.66;5104509;27;61914;-84
2022/03/12 04:52:35;;;;;;;;;4.50;2.75;;;;;15.08;57.72;101046.34;5105491;27;62065;-85
2022/03/12 04:55:12;;;;;;;;;2.00;0.00;;;;;15.13;57.21;101035.91;5105073;27;62130;-85
2022/03/12 04:57:39;;;;;;;;;4.00;1.75;;;;;15.13;57.29;101033.25;5104035;27;62029;-85
2022/03/12 05:00:16;;;;;;;;;2.00;2.00;;;;;15.04;57.56;101039.16;5103626;27;62115;-85
2022/03/12 05:02:42;;;;;;;;;2.00;2.00;;;;;15.06;57.60;101041.81;5103833;27;62916;-85
2022/03/12 05:05:12;;;;;;;;;3.25;3.00;;;;;15.09;57.61;101042.81;5103803;27;62093;-85
2022/03/12 05:07:43;;;;;;;;;4.50;2.00;;;;;15.10;57.50;101049.94;5104360;27;61895;-84
2022/03/12 05:10:10;;;;;;;;;2.00;2.00;;;;;15.10;57.36;101057.84;5105386;27;61780;-84
2022/03/12 05:12:37;;;;;;;;;2.75;2.00;;;;;14.99;57.27;101061.00;5105104;27;62114;-85
2022/03/12 05:15:04;;;;;;;;;6.25;4.75;;;;;14.98;57.46;101061.88;5103678;27;62576;-85
2022/03/12 05:17:34;;;;;;;;;3.00;3.00;;;;;15.02;57.61;101055.84;5105599;27;61902;-85
2022/03/12 05:20:00;;;;;;;;;1.50;1.50;;;;;14.96;57.33;101058.28;5104254;27;61777;-85
2022/03/12 05:22:25;;;;;;;;;1.75;1.75;;;;;15.04;57.43;101067.31;5104245;27;61780;-85
2022/03/12 05:24:51;;;;;;;;;2.00;2.00;;;;;15.08;57.39;101059.56;5105039;27;61946;-84
2022/03/12 05:27:17;;;;;;;;;3.00;1.00;;;;;15.12;57.18;101057.88;5103201;27;61941;-85
2022/03/12 05:29:45;;;;;;;;;3.00;3.00;;;;;15.14;57.12;101061.47;5103565;27;61841;-84
2022/03/12 05:32:13;;;;;;;;;5.50;5.50;;;;;15.10;57.31;101060.50;5104704;27;61984;-85
2022/03/12 05:34:39;;;;;;;;;6.75;3.00;;;;;15.09;57.24;101063.09;5105310;27;61766;-85
2022/03/12 05:37:08;;;;;;;;;3.25;3.25;;;;;15.11;57.07;101069.31;5103818;27;61927;-85
2022/03/12 05:39:34;;;;;;;;;6.50;2.00;;;;;15.10;56.97;101063.16;5104839;27;61784;-84
2022/03/12 05:42:05;;;;;;;;;2.50;2.50;;;;;15.06;57.35;101065.63;5120336;27;64752;-84
2022/03/12 05:44:36;;;;;;;;;7.00;2.25;;;;;15.06;57.15;101070.91;5103668;27;61887;-84
2022/03/12 05:47:10;;;;;;;;;3.25;2.50;;;;;15.02;57.28;101069.94;5103354;27;61795;-85
2022/03/12 05:49:36;;;;;;;;;5.25;3.00;;;;;15.00;57.04;101074.28;5105055;27;62166;-84
2022/03/12 05:52:01;;;;;;;;;1.75;1.75;;;;;15.00;57.10;101069.00;5104285;27;62467;-85
2022/03/12 05:54:27;;;;;;;;;3.50;2.75;;;;;15.01;57.58;101069.88;5103078;27;61924;-85
2022/03/12 05:56:54;;;;;;;;;4.75;2.00;;;;;14.99;57.16;101075.13;5120437;27;61777;-85
2022/03/12 05:59:19;;;;;;;;;3.75;2.00;;;;;14.95;57.15;101075.88;5103215;27;62009;-85
2022/03/12 06:01:45;;;;;;;;;3.00;2.00;;;;;14.90;57.48;101078.38;5102499;27;63726;-84
2022/03/12 06:04:11;;;;;;;;;2.50;1.00;;;;;14.85;57.55;101085.28;5104415;27;61804;-84
2022/03/12 06:06:38;;;;;;;;;5.00;5.00;;;;;14.83;57.41;101080.78;5103387;27;61776;-84
2022/03/12 06:09:07;;;;;;;;;7.50;5.00;;;;;14.82;57.33;101089.56;5102815;27;62180;-85
2022/03/12 06:11:34;;;;;;;;;2.00;2.00;;;;;14.81;57.78;101093.06;5103980;27;62824;-84
2022/03/12 06:14:00;;;;;;;;;6.50;5.25;;;;;14.75;57.82;101092.84;5104683;27;61842;-84
2022/03/12 06:16:27;;;;;;;;;6.75;4.75;;;;;14.73;58.10;101093.69;5137593;27;62361;-85
2022/03/12 06:18:53;;;;;;;;;4.50;4.50;;;;;14.70;57.45;101096.25;5103071;27;62112;-85
2022/03/12 06:21:20;;;;;;;;;8.00;3.25;;;;;14.70;58.09;101104.16;5102680;27;61974;-84
2022/03/12 06:23:46;;;;;;;;;4.50;4.50;;;;;14.72;57.84;101109.50;5103995;27;61855;-84
2022/03/12 06:26:16;;;;;;;;;7.50;6.00;;;;;14.74;58.08;101102.53;5102346;27;61888;-84
2022/03/12 06:28:43;;;;;;;;;5.25;5.00;;;;;14.76;57.61;101108.78;5104228;27;61773;-85
2022/03/12 06:31:09;;;;;;;;;9.00;6.50;;;;;14.78;57.69;101114.09;5119003;27;63652;-85
2022/03/12 06:33:35;;;;;;;;;11.50;8.00;;;;;14.79;57.93;101114.13;5101815;27;62145;-85
2022/03/12 06:36:04;;;;;;;;;7.75;6.25;;;;;14.79;57.57;101123.81;5104229;27;62094;-84
2022/03/12 06:38:30;;;;;;;;;5.00;5.00;;;;;14.81;57.72;101120.38;5103631;27;61787;-84
2022/03/12 06:40:58;;;;;;;;;9.50;6.00;;;;;14.83;57.62;101121.31;5102179;27;63678;-84
2022/03/12 06:43:28;;;;;;;;;7.25;4.00;;;;;14.82;57.58;101130.09;5104089;27;62040;-84
2022/03/12 06:45:57;;;;;;;;;4.00;4.00;;;;;14.86;57.50;101129.34;5102347;27;61833;-84
2022/03/12 06:48:23;;;;;;;;;6.00;4.00;;;;;14.91;57.08;101132.16;5102578;27;61922;-84
2022/03/12 06:50:48;;;;;;;;;6.00;6.00;;;;;14.91;56.53;101140.97;5102796;27;61999;-84
2022/03/12 06:53:15;;;;;;;;;11.25;5.25;;;;;14.90;56.87;101143.56;5103635;27;61838;-85
2022/03/12 06:55:41;;;;;;;;;5.50;5.50;;;;;14.91;56.87;101154.19;5103873;27;62123;-84
2022/03/12 06:58:07;;;;;;;;;6.50;3.25;;;;;14.90;56.84;101164.72;5102058;27;61757;-85
2022/03/12 07:00:33;;;;;;;;;6.75;4.50;;;;;14.93;56.50;101170.06;5102326;27;63460;-85
2022/03/12 07:02:59;;;;;;;;;3.00;3.00;;;;;14.96;56.61;101180.78;5102046;27;61813;-85
2022/03/12 07:05:26;;;;;;;;;3.50;3.00;;;;;14.97;56.34;101176.38;5103426;27;61928;-84
2022/03/12 07:07:52;;;;;;;;;2.50;2.50;;;;;15.03;56.59;101188.03;5103710;27;62356;-84
2022/03/12 07:10:18;;;;;;;;;3.00;3.00;;;;;15.07;56.17;101176.72;5118593;27;63301;-84
2022/03/12 07:12:45;;;;;;;;;5.00;3.25;;;;;15.11;56.04;101189.19;5103719;27;61957;-84
2022/03/12 07:15:12;;;;;;;;;3.00;3.00;;;;;15.11;55.83;101183.03;5103523;27;61942;-84
2022/03/12 07:17:38;;;;;;;;;6.25;6.25;;;;;15.14;55.70;101185.75;5102370;27;61918;-85
2022/03/12 07:20:05;;;;;;;;;7.25;5.00;;;;;15.21;55.84;101190.41;5100796;27;63817;-85
2022/03/12 07:22:31;;;;;;;;;6.00;6.00;;;;;15.24;55.80;101187.84;5102114;27;62191;-85
2022/03/12 07:24:57;;;;;;;;;7.00;5.75;;;;;15.25;55.48;101188.72;5101934;27;62363;-85
2022/03/12 07:27:24;;;;;;;;;8.25;6.00;;;;;15.28;55.18;101196.78;5103114;27;61891;-84
2022/03/12 07:29:50;;;;;;;;;9.75;7.75;;;;;15.31;55.32;101202.16;5102148;27;61905;-85
2022/03/12 07:32:16;;;;;;;;;4.50;4.00;;;;;15.39;55.40;101197.13;5101798;27;61934;-85
2022/03/12 07:34:42;;;;;;;;;5.00;5.00;;;;;15.45;55.16;101199.97;5101571;27;61747;-84
2022/03/12 07:37:11;;;;;;;;;5.75;5.75;;;;;15.50;54.82;101190.41;5102180;27;62170;-84
2022/03/12 07:39:37;;;;;;;;;5.00;4.50;;;;;15.59;55.02;101195.09;5102292;27;61999;-85
2022/03/12 07:42:03;;;;;;;;;10.50;6.00;;;;;15.67;54.72;101196.22;5103432;27;61709;-85
2022/03/12 07:44:29;;;;;;;;;6.50;5.50;;;;;15.72;54.83;101199.91;5101841;27;62165;-84
2022/03/12 07:46:55;;;;;;;;;5.00;5.00;;;;;15.80;54.76;101201.06;5101720;27;61883;-87
2022/03/12 07:49:21;;;;;;;;;3.00;3.00;;;;;15.84;54.25;101194.13;5101847;27;62036;-85
2022/03/12 07:51:47;;;;;;;;;5.50;5.00;;;;;15.89;54.15;101200.44;5102640;27;61844;-87
2022/03/12 07:54:14;;;;;;;;;3.75;3.75;;;;;15.92;54.26;101200.53;5102946;27;61971;-84
2022/03/12 07:56:40;;;;;;;;;9.50;5.00;;;;;15.97;54.23;101195.38;5101321;27;61778;-84
2022/03/12 07:59:06;;;;;;;;;10.25;6.00;;;;;16.03;54.02;101207.03;5100340;27;63589;-84
2022/03/12 08:01:33;;;;;;;;;8.50;5.50;;;;;16.05;53.82;101209.72;5102355;27;61951;-85
2022/03/12 08:04:01;;;;;;;;;5.25;5.25;;;;;16.09;53.91;101211.63;5102223;27;62046;-86
2022/03/12 08:06:27;;;;;;;;;2.00;2.00;;;;;16.04;53.98;101221.16;5102551;27;61949;-80
2022/03/12 08:08:52;;;;;;;;;4.50;4.50;;;;;16.08;54.08;101221.28;5101274;27;62096;-82
2022/03/12 08:11:31;;;;;;;;;5.00;3.25;;;;;16.13;53.83;101230.28;5101258;27;61849;-82
2022/03/12 08:14:05;;;;;;;;;8.00;5.75;;;;;16.21;53.75;101232.25;5101304;27;61774;-81
2022/03/12 08:16:36;;;;;;;;;6.75;5.75;;;;;16.25;53.80;101231.47;5099501;27;61928;-81
2022/03/12 08:19:03;;;;;;;;;5.50;4.25;;;;;16.28;53.72;101243.06;5099788;27;63693;-78
2022/03/12 08:21:30;;;;;;;;;5.00;4.75;;;;;16.26;53.44;101242.13;5095037;27;61746;-83
2022/03/12 08:23:55;;;;;;;;;3.50;3.50;;;;;16.28;53.30;101243.06;5101249;27;61947;-85
2022/03/12 08:26:21;;;;;;;;;8.75;5.00;;;;;16.26;53.58;101242.13;5101072;27;62176;-84
2022/03/12 08:28:47;;;;;;;;;4.75;4.75;;;;;16.31;53.21;101251.09;5101790;27;62111;-84
2022/03/12 08:31:13;;;;;;;;;6.50;5.25;;;;;16.36;53.32;101264.47;5100576;27;61829;-85
2022/03/12 08:33:39;;;;;;;;;3.00;2.00;;;;;16.43;53.24;101261.16;5102247;27;61829;-82
2022/03/12 08:36:06;;;;;;;;;3.00;3.00;;;;;16.42;52.95;101266.41;5100391;27;61865;-83
2022/03/12 08:38:34;;;;;;;;;7.75;4.25;;;;;16.42;53.22;101269.06;5100651;27;62168;-77
2022/03/12 08:41:01;;;;;;;;;6.50;3.75;;;;;16.46;52.90;101268.28;5102700;27;61735;-81
2022/03/12 08:43:27;;;;;;;;;8.75;6.50;;;;;16.53;52.76;101271.13;5101247;27;62019;-81
2022/03/12 08:45:53;;;;;;;;;8.75;7.00;;;;;16.55;52.75;101265.88;5102285;27;62147;-82
2022/03/12 08:48:18;;;;;;;;;19.50;11.50;;;;;16.56;52.48;101267.69;5101313;27;62005;-81
2022/03/12 08:50:44;;;;;;;;;13.50;8.75;;;;;16.65;52.79;101267.03;5102162;27;61798;-78
2022/03/12 08:53:11;;;;;;;;;37.00;32.25;;;;;16.72;52.48;101259.28;5099463;27;62058;-84
2022/03/12 08:55:38;;;;;;;;;31.00;25.25;;;;;16.72;52.29;101264.59;5099208;27;61856;-84
2022/03/12 08:58:03;;;;;;;;;61.75;44.25;;;;;16.75;52.46;101269.06;5101228;27;63082;-84
2022/03/12 09:00:33;;;;;;;;;71.25;52.00;;;;;16.81;52.51;101263.97;5102897;27;61932;-84
2022/03/12 09:03:01;;;;;;;;;23.50;17.50;;;;;16.85;52.22;101265.84;5101434;27;61916;-84
2022/03/12 09:05:29;;;;;;;;;6.75;4.00;;;;;16.86;52.60;101261.44;5103424;27;62132;-84
2022/03/12 09:07:55;;;;;;;;;6.25;6.25;;;;;16.95;52.14;101269.66;5102871;27;64211;-84
2022/03/12 09:10:22;;;;;;;;;4.75;4.75;;;;;17.02;51.88;101268.94;5104923;27;62024;-84
2022/03/12 09:12:47;;;;;;;;;6.50;5.75;;;;;17.02;51.81;101271.59;5104851;27;61832;-83
2022/03/12 09:15:13;;;;;;;;;4.75;2.75;;;;;17.06;52.06;101268.16;5103440;27;61799;-84
2022/03/12 09:17:40;;;;;;;;;5.00;3.00;;;;;17.07;51.60;101267.28;5103652;27;62723;-84
2022/03/12 09:20:06;;;;;;;;;4.50;2.75;;;;;17.12;51.64;101267.44;5102477;27;61908;-84
2022/03/12 09:22:32;;;;;;;;;8.75;3.00;;;;;17.16;51.68;101264.88;5103337;27;62037;-84
2022/03/12 09:24:58;;;;;;;;;9.25;3.50;;;;;17.22;51.17;101261.47;5103686;27;61859;-84
2022/03/12 09:27:24;;;;;;;;;4.75;4.50;;;;;17.26;51.20;101260.69;5103280;27;63447;-84
2022/03/12 09:29:50;;;;;;;;;8.25;2.50;;;;;17.33;51.32;101265.31;5105537;27;62069;-77
2022/03/12 09:32:16;;;;;;;;;3.00;3.00;;;;;17.42;51.19;101267.28;5105233;27;61739;-79
2022/03/12 09:34:41;;;;;;;;;4.00;3.25;;;;;17.49;50.91;101263.91;5105428;27;62220;-80
2022/03/12 09:37:09;;;;;;;;;3.00;3.00;;;;;17.57;50.90;101272.97;5102127;27;61909;-81
2022/03/12 09:39:35;;;;;;;;;4.00;3.50;;;;;17.65;50.65;101273.16;5104902;27;61980;-80
2022/03/12 09:42:01;;;;;;;;;7.00;5.25;;;;;17.67;50.65;101271.41;5121028;27;61953;-81
2022/03/12 09:44:26;;;;;;;;;5.00;3.00;;;;;17.77;50.70;101268.09;5102794;27;61873;-81
2022/03/12 09:46:52;;;;;;;;;2.75;2.75;;;;;17.82;50.38;101260.25;5102962;27;62042;-80
2022/03/12 09:49:18;;;;;;;;;8.00;6.00;;;;;17.91;49.97;101262.22;5102466;27;61957;-80
2022/03/12 09:51:44;;;;;;;;;5.25;3.00;;;;;18.01;49.85;101266.00;5104124;27;62152;-80
2022/03/12 09:54:11;;;;;;;;;2.50;2.50;;;;;18.12;49.84;101265.38;5120413;27;61879;-81
2022/03/12 09:56:38;;;;;;;;;4.50;2.25;;;;;18.23;49.74;101270.91;5103344;27;62216;-81
2022/03/12 09:59:05;;;;;;;;;8.00;4.00;;;;;18.33;49.84;101266.66;5105184;27;62159;-80
2022/03/12 10:01:31;;;;;;;;;5.00;4.00;;;;;18.46;49.79;101251.84;5112196;27;62142;-81
2022/03/12 10:03:57;;;;;;;;;3.25;3.25;;;;;18.50;49.45;101254.59;5121415;27;62169;-80
2022/03/12 10:06:22;;;;;;;;;4.00;4.00;;;;;18.53;49.35;101243.13;5102371;27;62138;-81
2022/03/12 10:08:48;;;;;;;;;5.25;3.00;;;;;18.62;49.18;101251.28;5120428;27;62109;-80
2022/03/12 10:11:13;;;;;;;;;9.00;3.50;;;;;18.72;48.85;101247.03;5104195;27;61905;-81
2022/03/12 10:13:39;;;;;;;;;6.50;4.50;;;;;18.82;48.63;101243.72;5104147;27;61749;-81
2022/03/12 10:16:05;;;;;;;;;4.00;3.00;;;;;18.86;48.47;101245.56;5102594;27;64410;-81
2022/03/12 10:18:30;;;;;;;;;6.50;3.00;;;;;18.94;48.54;101254.59;5104892;27;61851;-81
2022/03/12 10:20:57;;;;;;;;;7.25;4.75;;;;;19.00;48.67;101238.72;5103457;27;61727;-81
2022/03/12 10:23:23;;;;;;;;;7.00;4.00;;;;;19.07;48.40;101242.38;5105463;27;61861;-80
2022/03/12 10:25:49;;;;;;;;;4.00;3.00;;;;;19.15;48.20;101242.50;5103745;27;63599;-80
2022/03/12 10:28:15;;;;;;;;;5.00;3.00;;;;;19.16;48.31;101231.88;5103875;27;61754;-80
2022/03/12 10:30:41;;;;;;;;;7.00;3.00;;;;;19.27;48.22;101229.38;5104599;27;62171;-80
2022/03/12 10:33:24;;;;;;;;;4.00;4.00;;;;;19.32;47.83;101221.47;5102842;27;62157;-83
2022/03/12 10:35:50;;;;;;;;;3.75;2.00;;;;;19.34;47.72;101214.41;5120250;27;62914;-77
2022/03/12 10:38:17;;;;;;;;;5.50;3.25;;;;;19.39;48.13;101218.94;5120451;27;62383;-82
2022/03/12 10:40:44;;;;;;;;;4.00;3.00;;;;;19.47;47.83;101220.81;5104680;27;61788;-79
2022/03/12 10:43:13;;;;;;;;;6.50;3.00;;;;;19.55;47.68;101228.03;5104186;27;62161;-79
2022/03/12 10:45:43;;;;;;;;;2.50;2.50;;;;;19.56;47.60;101223.63;5103672;27;61986;-79
2022/03/12 10:48:09;;;;;;;;;3.75;2.25;;;;;19.61;47.41;101227.25;5103051;27;61822;-82
2022/03/12 10:50:40;;;;;;;;;5.75;3.25;;;;;19.68;47.31;101228.22;5120169;27;61776;-82
2022/03/12 10:53:07;;;;;;;;;2.00;2.00;;;;;19.71;47.52;101220.28;5104707;27;62054;-80
2022/03/12 10:55:36;;;;;;;;;2.00;2.00;;;;;19.72;47.54;101217.66;5103242;27;63327;-83
2022/03/12 10:58:19;;;;;;;;;2.00;2.00;;;;;19.82;47.59;101218.69;5102137;27;62158;-78
2022/03/12 11:00:47;;;;;;;;;4.50;2.75;;;;;19.92;47.27;101217.03;5101737;27;62057;-80
2022/03/12 11:03:20;;;;;;;;;6.50;3.00;;;;;19.99;47.01;101222.47;5103186;27;62161;-82
2022/03/12 11:05:47;;;;;;;;;5.00;2.50;;;;;20.06;46.83;101218.09;5102185;27;64742;-80
2022/03/12 11:08:23;;;;;;;;;2.00;2.00;;;;;20.10;46.78;101214.63;5103196;27;62023;-80
2022/03/12 11:10:53;;;;;;;;;2.25;2.00;;;;;20.12;46.37;101207.53;5119742;27;62558;-81
2022/03/12 11:13:49;;;;;;;;;2.50;2.50;;;;;20.14;46.08;101204.88;5103470;27;61751;-82
2022/03/12 11:16:25;;;;;;;;;3.25;2.00;;;;;20.17;46.20;101200.47;5101819;27;63585;-78
2022/03/12 11:18:50;;;;;;;;;3.00;2.00;;;;;20.25;46.41;101194.34;5101026;27;61961;-84
2022/03/12 11:21:29;;;;;;;;;6.00;3.00;;;;;20.34;46.31;101202.44;5101291;27;61753;-79
2022/03/12 11:23:57;;;;;;;;;4.50;2.00;;;;;20.37;45.87;101202.47;5103879;27;61773;-81
2022/03/12 11:26:24;;;;;;;;;4.00;4.00;;;;;20.47;45.86;101195.47;5099834;27;64694;-81